sensor_id;sensor_type;location;lat;lon;timestamp;P1;durP1;ratioP1;P2;durP2;ratioP2
76094;SDS011;64821;13.710;100.604;2023-04-15T00:00:50;50.95;;;41.42;;
76094;SDS011;64821;13.710;100.604;2023-04-15T00:01:56;49.65;;;41.42;;
76094;SDS011;64821;13.710;100.604;2023-04-15T00:03:00;50.97;;;40.03;;
76094;SDS011;64821;13.710;100.604;2023-04-15T00:04:04;49.33;;;40.20;;
76094;SDS011;64821;13.710;100.604;2023-04-15T00:05:08;49.87;;;39.60;;
76094;SDS011;64821;13.710;100.604;2023-04-15T00:06:12;49.05;;;39.80;;
76094;SDS011;64821;13.710;100.604;2023-04-15T00:07:16;56.30;;;42.20;;
76094;SDS011;64821;13.710;100.604;2023-04-15T00:08:19;48.97;;;38.92;;
76094;SDS011;64821;13.710;100.604;2023-04-15T00:09:23;54.35;;;43.55;;
76094;SDS011;64821;13.710;100.604;2023-04-15T00:10:27;52.23;;;41.10;;
76094;SDS011;64821;13.710;100.604;2023-04-15T00:11:31;52.00;;;41.60;;
76094;SDS011;64821;13.710;100.604;2023-04-15T00:12:34;58.08;;;44.05;;
76094;SDS011;64821;13.710;100.604;2023-04-15T00:13:40;56.45;;;42.10;;
76094;SDS011;64821;13.710;100.604;2023-04-15T00:14:44;54.88;;;43.92;;
76094;SDS011;64821;13.710;100.604;2023-04-15T00:15:48;52.90;;;41.33;;
76094;SDS011;64821;13.710;100.604;2023-04-15T00:16:51;50.25;;;39.15;;
76094;SDS011;64821;13.710;100.604;2023-04-15T00:17:55;56.60;;;43.33;;
76094;SDS011;64821;13.710;100.604;2023-04-15T00:19:03;51.78;;;42.08;;
76094;SDS011;64821;13.710;100.604;2023-04-15T00:20:07;53.58;;;42.70;;
76094;SDS011;64821;13.710;100.604;2023-04-15T00:21:11;54.27;;;41.63;;
76094;SDS011;64821;13.710;100.604;2023-04-15T00:22:15;52.97;;;40.58;;
76094;SDS011;64821;13.710;100.604;2023-04-15T00:23:19;53.55;;;43.08;;
76094;SDS011;64821;13.710;100.604;2023-04-15T00:24:23;54.88;;;42.97;;
76094;SDS011;64821;13.710;100.604;2023-04-15T00:25:26;56.13;;;44.28;;
76094;SDS011;64821;13.710;100.604;2023-04-15T00:26:32;53.37;;;41.10;;
76094;SDS011;64821;13.710;100.604;2023-04-15T00:27:36;57.55;;;43.13;;
76094;SDS011;64821;13.710;100.604;2023-04-15T00:28:42;53.97;;;43.38;;
76094;SDS011;64821;13.710;100.604;2023-04-15T00:29:45;51.53;;;41.72;;
76094;SDS011;64821;13.710;100.604;2023-04-15T00:30:49;50.50;;;39.83;;
76094;SDS011;64821;13.710;100.604;2023-04-15T00:31:53;51.73;;;40.03;;
76094;SDS011;64821;13.710;100.604;2023-04-15T00:32:59;54.60;;;42.63;;
76094;SDS011;64821;13.710;100.604;2023-04-15T00:34:26;62.53;;;47.15;;
76094;SDS011;64821;13.710;100.604;2023-04-15T00:35:30;57.22;;;45.40;;
76094;SDS011;64821;13.710;100.604;2023-04-15T00:36:34;58.67;;;44.95;;
76094;SDS011;64821;13.710;100.604;2023-04-15T00:37:37;58.23;;;44.37;;
76094;SDS011;64821;13.710;100.604;2023-04-15T00:38:41;57.25;;;44.30;;
76094;SDS011;64821;13.710;100.604;2023-04-15T00:39:45;54.58;;;43.20;;
76094;SDS011;64821;13.710;100.604;2023-04-15T00:40:48;63.38;;;45.50;;
76094;SDS011;64821;13.710;100.604;2023-04-15T00:41:52;56.83;;;44.03;;
76094;SDS011;64821;13.710;100.604;2023-04-15T00:42:56;53.57;;;42.90;;
76094;SDS011;64821;13.710;100.604;2023-04-15T00:44:02;59.83;;;46.60;;
76094;SDS011;64821;13.710;100.604;2023-04-15T00:45:05;54.30;;;43.45;;
76094;SDS011;64821;13.710;100.604;2023-04-15T00:46:10;62.28;;;46.95;;
76094;SDS011;64821;13.710;100.604;2023-04-15T00:47:16;57.88;;;47.25;;
76094;SDS011;64821;13.710;100.604;2023-04-15T00:48:20;55.43;;;42.63;;
76094;SDS011;64821;13.710;100.604;2023-04-15T00:49:24;59.10;;;46.63;;
76094;SDS011;64821;13.710;100.604;2023-04-15T00:50:29;61.83;;;46.22;;
76094;SDS011;64821;13.710;100.604;2023-04-15T00:51:33;59.60;;;46.55;;
76094;SDS011;64821;13.710;100.604;2023-04-15T00:52:37;63.13;;;48.70;;
76094;SDS011;64821;13.710;100.604;2023-04-15T00:53:41;59.97;;;47.00;;
76094;SDS011;64821;13.710;100.604;2023-04-15T00:54:44;60.75;;;46.03;;
76094;SDS011;64821;13.710;100.604;2023-04-15T00:55:48;56.80;;;45.75;;
76094;SDS011;64821;13.710;100.604;2023-04-15T00:56:52;56.42;;;44.28;;
76094;SDS011;64821;13.710;100.604;2023-04-15T00:57:56;61.05;;;45.78;;
76094;SDS011;64821;13.710;100.604;2023-04-15T00:58:59;59.30;;;44.70;;
76094;SDS011;64821;13.710;100.604;2023-04-15T01:00:06;54.90;;;43.10;;
76094;SDS011;64821;13.710;100.604;2023-04-15T01:01:10;62.67;;;45.03;;
76094;SDS011;64821;13.710;100.604;2023-04-15T01:02:14;62.88;;;46.65;;
76094;SDS011;64821;13.710;100.604;2023-04-15T01:03:18;58.25;;;43.20;;
76094;SDS011;64821;13.710;100.604;2023-04-15T01:04:22;55.10;;;43.10;;
76094;SDS011;64821;13.710;100.604;2023-04-15T01:05:26;59.20;;;45.10;;
76094;SDS011;64821;13.710;100.604;2023-04-15T01:06:31;58.03;;;44.83;;
76094;SDS011;64821;13.710;100.604;2023-04-15T01:07:35;56.70;;;46.00;;
76094;SDS011;64821;13.710;100.604;2023-04-15T01:08:38;59.50;;;45.67;;
76094;SDS011;64821;13.710;100.604;2023-04-15T01:09:42;57.33;;;45.57;;
76094;SDS011;64821;13.710;100.604;2023-04-15T01:10:46;57.28;;;45.90;;
76094;SDS011;64821;13.710;100.604;2023-04-15T01:11:50;58.55;;;45.30;;
76094;SDS011;64821;13.710;100.604;2023-04-15T01:12:54;55.42;;;43.90;;
76094;SDS011;64821;13.710;100.604;2023-04-15T01:13:58;52.88;;;41.78;;
76094;SDS011;64821;13.710;100.604;2023-04-15T01:15:03;57.37;;;43.97;;
76094;SDS011;64821;13.710;100.604;2023-04-15T01:16:08;59.22;;;46.15;;
76094;SDS011;64821;13.710;100.604;2023-04-15T01:17:12;57.13;;;44.40;;
76094;SDS011;64821;13.710;100.604;2023-04-15T01:18:16;50.70;;;40.88;;
76094;SDS011;64821;13.710;100.604;2023-04-15T01:19:20;58.33;;;45.92;;
76094;SDS011;64821;13.710;100.604;2023-04-15T01:20:24;58.10;;;45.03;;
76094;SDS011;64821;13.710;100.604;2023-04-15T01:21:28;56.92;;;44.63;;
76094;SDS011;64821;13.710;100.604;2023-04-15T01:22:32;58.40;;;45.40;;
76094;SDS011;64821;13.710;100.604;2023-04-15T01:23:36;52.03;;;42.30;;
76094;SDS011;64821;13.710;100.604;2023-04-15T01:24:40;57.40;;;44.60;;
76094;SDS011;64821;13.710;100.604;2023-04-15T01:25:54;60.73;;;48.00;;
76094;SDS011;64821;13.710;100.604;2023-04-15T01:26:59;59.45;;;44.67;;
76094;SDS011;64821;13.710;100.604;2023-04-15T01:28:03;58.83;;;46.42;;
76094;SDS011;64821;13.710;100.604;2023-04-15T01:29:06;61.00;;;46.38;;
76094;SDS011;64821;13.710;100.604;2023-04-15T01:30:10;55.97;;;44.72;;
76094;SDS011;64821;13.710;100.604;2023-04-15T01:31:14;57.43;;;44.30;;
76094;SDS011;64821;13.710;100.604;2023-04-15T01:32:18;54.88;;;46.08;;
76094;SDS011;64821;13.710;100.604;2023-04-15T01:33:22;64.50;;;47.60;;
76094;SDS011;64821;13.710;100.604;2023-04-15T01:34:25;60.90;;;45.05;;
76094;SDS011;64821;13.710;100.604;2023-04-15T01:35:29;56.25;;;44.70;;
76094;SDS011;64821;13.710;100.604;2023-04-15T01:36:33;57.77;;;45.30;;
76094;SDS011;64821;13.710;100.604;2023-04-15T01:37:36;55.00;;;45.42;;
76094;SDS011;64821;13.710;100.604;2023-04-15T01:38:40;59.47;;;45.42;;
76094;SDS011;64821;13.710;100.604;2023-04-15T01:39:44;55.15;;;43.42;;
76094;SDS011;64821;13.710;100.604;2023-04-15T01:40:48;56.97;;;45.08;;
76094;SDS011;64821;13.710;100.604;2023-04-15T01:41:53;61.67;;;47.70;;
76094;SDS011;64821;13.710;100.604;2023-04-15T01:42:57;63.35;;;47.28;;
76094;SDS011;64821;13.710;100.604;2023-04-15T01:44:00;62.30;;;48.83;;
76094;SDS011;64821;13.710;100.604;2023-04-15T01:45:04;62.20;;;47.88;;
76094;SDS011;64821;13.710;100.604;2023-04-15T01:46:09;59.08;;;47.45;;
76094;SDS011;64821;13.710;100.604;2023-04-15T01:47:12;57.37;;;44.93;;
76094;SDS011;64821;13.710;100.604;2023-04-15T01:48:16;56.90;;;47.60;;
76094;SDS011;64821;13.710;100.604;2023-04-15T01:49:20;56.88;;;46.63;;
76094;SDS011;64821;13.710;100.604;2023-04-15T01:50:24;60.10;;;47.35;;
76094;SDS011;64821;13.710;100.604;2023-04-15T01:51:27;59.75;;;48.28;;
76094;SDS011;64821;13.710;100.604;2023-04-15T01:52:31;60.43;;;46.00;;
76094;SDS011;64821;13.710;100.604;2023-04-15T01:53:35;61.60;;;47.47;;
76094;SDS011;64821;13.710;100.604;2023-04-15T01:54:38;62.88;;;48.63;;
76094;SDS011;64821;13.710;100.604;2023-04-15T01:55:42;59.80;;;46.55;;
76094;SDS011;64821;13.710;100.604;2023-04-15T01:56:46;59.40;;;49.10;;
76094;SDS011;64821;13.710;100.604;2023-04-15T01:57:51;60.50;;;47.50;;
76094;SDS011;64821;13.710;100.604;2023-04-15T01:58:55;60.15;;;49.53;;
76094;SDS011;64821;13.710;100.604;2023-04-15T01:59:59;60.30;;;46.00;;
76094;SDS011;64821;13.710;100.604;2023-04-15T02:01:03;59.90;;;47.45;;
76094;SDS011;64821;13.710;100.604;2023-04-15T02:02:06;54.25;;;46.22;;
76094;SDS011;64821;13.710;100.604;2023-04-15T02:03:10;63.60;;;50.60;;
76094;SDS011;64821;13.710;100.604;2023-04-15T02:04:14;64.45;;;50.10;;
76094;SDS011;64821;13.710;100.604;2023-04-15T02:05:18;65.35;;;51.97;;
76094;SDS011;64821;13.710;100.604;2023-04-15T02:06:21;63.72;;;50.00;;
76094;SDS011;64821;13.710;100.604;2023-04-15T02:07:25;66.05;;;51.00;;
76094;SDS011;64821;13.710;100.604;2023-04-15T02:08:29;60.73;;;48.80;;
76094;SDS011;64821;13.710;100.604;2023-04-15T02:09:33;62.63;;;48.13;;
76094;SDS011;64821;13.710;100.604;2023-04-15T02:10:37;60.13;;;48.30;;
76094;SDS011;64821;13.710;100.604;2023-04-15T02:11:40;59.15;;;46.42;;
76094;SDS011;64821;13.710;100.604;2023-04-15T02:12:44;61.65;;;49.05;;
76094;SDS011;64821;13.710;100.604;2023-04-15T02:13:49;63.50;;;52.10;;
76094;SDS011;64821;13.710;100.604;2023-04-15T02:14:53;66.63;;;51.55;;
76094;SDS011;64821;13.710;100.604;2023-04-15T02:15:57;63.88;;;50.08;;
76094;SDS011;64821;13.710;100.604;2023-04-15T02:17:00;56.50;;;46.28;;
76094;SDS011;64821;13.710;100.604;2023-04-15T02:18:04;59.10;;;46.80;;
76094;SDS011;64821;13.710;100.604;2023-04-15T02:19:08;62.30;;;51.47;;
76094;SDS011;64821;13.710;100.604;2023-04-15T02:20:11;65.22;;;52.92;;
76094;SDS011;64821;13.710;100.604;2023-04-15T02:21:15;62.17;;;48.58;;
76094;SDS011;64821;13.710;100.604;2023-04-15T02:22:19;60.40;;;49.53;;
76094;SDS011;64821;13.710;100.604;2023-04-15T02:23:22;60.90;;;46.42;;
76094;SDS011;64821;13.710;100.604;2023-04-15T02:24:26;58.07;;;46.97;;
76094;SDS011;64821;13.710;100.604;2023-04-15T02:25:31;60.60;;;49.15;;
76094;SDS011;64821;13.710;100.604;2023-04-15T02:26:34;63.65;;;51.35;;
76094;SDS011;64821;13.710;100.604;2023-04-15T02:27:38;64.53;;;49.70;;
76094;SDS011;64821;13.710;100.604;2023-04-15T02:28:42;62.45;;;51.53;;
76094;SDS011;64821;13.710;100.604;2023-04-15T02:29:47;63.00;;;50.40;;
76094;SDS011;64821;13.710;100.604;2023-04-15T02:30:51;65.88;;;51.67;;
76094;SDS011;64821;13.710;100.604;2023-04-15T02:31:54;66.15;;;53.38;;
76094;SDS011;64821;13.710;100.604;2023-04-15T02:32:59;66.05;;;50.88;;
76094;SDS011;64821;13.710;100.604;2023-04-15T02:34:03;66.75;;;53.40;;
76094;SDS011;64821;13.710;100.604;2023-04-15T02:35:07;65.30;;;49.00;;
76094;SDS011;64821;13.710;100.604;2023-04-15T02:36:11;63.85;;;53.42;;
76094;SDS011;64821;13.710;100.604;2023-04-15T02:37:14;70.63;;;55.40;;
76094;SDS011;64821;13.710;100.604;2023-04-15T02:38:28;70.00;;;56.00;;
76094;SDS011;64821;13.710;100.604;2023-04-15T02:39:32;66.43;;;54.00;;
76094;SDS011;64821;13.710;100.604;2023-04-15T02:40:35;65.40;;;51.93;;
76094;SDS011;64821;13.710;100.604;2023-04-15T02:41:39;65.68;;;54.60;;
76094;SDS011;64821;13.710;100.604;2023-04-15T02:42:43;67.47;;;54.20;;
76094;SDS011;64821;13.710;100.604;2023-04-15T02:43:47;75.60;;;53.08;;
76094;SDS011;64821;13.710;100.604;2023-04-15T02:44:52;64.28;;;51.20;;
76094;SDS011;64821;13.710;100.604;2023-04-15T02:45:56;68.00;;;53.47;;
76094;SDS011;64821;13.710;100.604;2023-04-15T02:47:00;68.50;;;54.50;;
76094;SDS011;64821;13.710;100.604;2023-04-15T02:48:03;71.57;;;56.53;;
76094;SDS011;64821;13.710;100.604;2023-04-15T02:49:07;68.07;;;49.53;;
76094;SDS011;64821;13.710;100.604;2023-04-15T02:50:11;67.65;;;53.55;;
76094;SDS011;64821;13.710;100.604;2023-04-15T02:51:16;68.43;;;54.60;;
76094;SDS011;64821;13.710;100.604;2023-04-15T02:52:21;73.30;;;54.33;;
76094;SDS011;64821;13.710;100.604;2023-04-15T02:53:24;66.78;;;55.10;;
76094;SDS011;64821;13.710;100.604;2023-04-15T02:54:28;63.78;;;50.97;;
76094;SDS011;64821;13.710;100.604;2023-04-15T02:55:32;68.72;;;54.05;;
76094;SDS011;64821;13.710;100.604;2023-04-15T02:56:35;65.67;;;54.60;;
76094;SDS011;64821;13.710;100.604;2023-04-15T02:57:39;65.85;;;52.70;;
76094;SDS011;64821;13.710;100.604;2023-04-15T02:58:43;69.95;;;55.42;;
76094;SDS011;64821;13.710;100.604;2023-04-15T02:59:47;63.53;;;52.58;;
76094;SDS011;64821;13.710;100.604;2023-04-15T03:00:52;66.88;;;52.55;;
76094;SDS011;64821;13.710;100.604;2023-04-15T03:01:56;68.33;;;54.80;;
76094;SDS011;64821;13.710;100.604;2023-04-15T03:03:00;64.80;;;52.63;;
76094;SDS011;64821;13.710;100.604;2023-04-15T03:04:06;63.72;;;51.05;;
76094;SDS011;64821;13.710;100.604;2023-04-15T03:05:10;66.95;;;50.88;;
76094;SDS011;64821;13.710;100.604;2023-04-15T03:06:15;62.85;;;51.58;;
76094;SDS011;64821;13.710;100.604;2023-04-15T03:07:19;64.93;;;50.67;;
76094;SDS011;64821;13.710;100.604;2023-04-15T03:08:22;63.55;;;52.33;;
76094;SDS011;64821;13.710;100.604;2023-04-15T03:09:26;61.05;;;50.15;;
76094;SDS011;64821;13.710;100.604;2023-04-15T03:10:38;65.30;;;52.83;;
76094;SDS011;64821;13.710;100.604;2023-04-15T03:11:42;62.40;;;49.17;;
76094;SDS011;64821;13.710;100.604;2023-04-15T03:12:46;63.47;;;51.13;;
76094;SDS011;64821;13.710;100.604;2023-04-15T03:13:50;67.47;;;53.45;;
76094;SDS011;64821;13.710;100.604;2023-04-15T03:14:53;62.63;;;50.28;;
76094;SDS011;64821;13.710;100.604;2023-04-15T03:15:59;66.18;;;50.33;;
76094;SDS011;64821;13.710;100.604;2023-04-15T03:17:03;61.08;;;50.83;;
76094;SDS011;64821;13.710;100.604;2023-04-15T03:18:07;64.97;;;51.50;;
76094;SDS011;64821;13.710;100.604;2023-04-15T03:19:10;65.65;;;52.40;;
76094;SDS011;64821;13.710;100.604;2023-04-15T03:20:14;71.18;;;53.75;;
76094;SDS011;64821;13.710;100.604;2023-04-15T03:21:18;67.15;;;52.58;;
76094;SDS011;64821;13.710;100.604;2023-04-15T03:22:21;70.00;;;55.08;;
76094;SDS011;64821;13.710;100.604;2023-04-15T03:23:25;65.23;;;54.27;;
76094;SDS011;64821;13.710;100.604;2023-04-15T03:24:29;62.90;;;50.80;;
76094;SDS011;64821;13.710;100.604;2023-04-15T03:25:35;68.45;;;51.30;;
76094;SDS011;64821;13.710;100.604;2023-04-15T03:26:38;70.18;;;55.63;;
76094;SDS011;64821;13.710;100.604;2023-04-15T03:27:42;65.47;;;53.47;;
76094;SDS011;64821;13.710;100.604;2023-04-15T03:28:46;70.23;;;56.03;;
76094;SDS011;64821;13.710;100.604;2023-04-15T03:29:49;66.32;;;52.35;;
76094;SDS011;64821;13.710;100.604;2023-04-15T03:30:53;64.20;;;53.00;;
76094;SDS011;64821;13.710;100.604;2023-04-15T03:31:58;69.00;;;54.55;;
76094;SDS011;64821;13.710;100.604;2023-04-15T03:33:02;69.10;;;55.13;;
76094;SDS011;64821;13.710;100.604;2023-04-15T03:34:06;62.50;;;52.93;;
76094;SDS011;64821;13.710;100.604;2023-04-15T03:35:17;70.03;;;55.22;;
76094;SDS011;64821;13.710;100.604;2023-04-15T03:36:21;64.10;;;52.55;;
76094;SDS011;64821;13.710;100.604;2023-04-15T03:37:25;72.93;;;53.80;;
76094;SDS011;64821;13.710;100.604;2023-04-15T03:38:28;65.20;;;52.75;;
76094;SDS011;64821;13.710;100.604;2023-04-15T03:39:32;69.77;;;55.23;;
76094;SDS011;64821;13.710;100.604;2023-04-15T03:40:37;66.10;;;53.40;;
76094;SDS011;64821;13.710;100.604;2023-04-15T03:41:42;63.75;;;52.95;;
76094;SDS011;64821;13.710;100.604;2023-04-15T03:42:46;61.95;;;52.55;;
76094;SDS011;64821;13.710;100.604;2023-04-15T03:43:49;64.38;;;52.88;;
76094;SDS011;64821;13.710;100.604;2023-04-15T03:44:53;65.10;;;52.30;;
76094;SDS011;64821;13.710;100.604;2023-04-15T03:45:57;71.13;;;53.08;;
76094;SDS011;64821;13.710;100.604;2023-04-15T03:47:04;69.30;;;53.17;;
76094;SDS011;64821;13.710;100.604;2023-04-15T03:48:08;70.45;;;52.75;;
76094;SDS011;64821;13.710;100.604;2023-04-15T03:49:18;68.03;;;53.35;;
76094;SDS011;64821;13.710;100.604;2023-04-15T03:50:22;72.00;;;56.83;;
76094;SDS011;64821;13.710;100.604;2023-04-15T03:51:25;71.88;;;54.90;;
76094;SDS011;64821;13.710;100.604;2023-04-15T03:52:29;68.78;;;53.47;;
76094;SDS011;64821;13.710;100.604;2023-04-15T03:53:33;70.47;;;53.67;;
76094;SDS011;64821;13.710;100.604;2023-04-15T03:54:37;67.85;;;53.05;;
76094;SDS011;64821;13.710;100.604;2023-04-15T03:55:40;67.57;;;52.90;;
76094;SDS011;64821;13.710;100.604;2023-04-15T03:56:44;63.83;;;50.92;;
76094;SDS011;64821;13.710;100.604;2023-04-15T03:57:48;66.20;;;51.97;;
76094;SDS011;64821;13.710;100.604;2023-04-15T03:58:51;62.47;;;49.15;;
76094;SDS011;64821;13.710;100.604;2023-04-15T03:59:55;74.78;;;56.22;;
76094;SDS011;64821;13.710;100.604;2023-04-15T04:00:59;68.53;;;52.93;;
76094;SDS011;64821;13.710;100.604;2023-04-15T04:02:04;67.97;;;52.13;;
76094;SDS011;64821;13.710;100.604;2023-04-15T04:03:08;63.88;;;52.35;;
76094;SDS011;64821;13.710;100.604;2023-04-15T04:04:12;70.03;;;53.63;;
76094;SDS011;64821;13.710;100.604;2023-04-15T04:05:16;66.88;;;52.38;;
76094;SDS011;64821;13.710;100.604;2023-04-15T04:06:20;64.43;;;50.90;;
76094;SDS011;64821;13.710;100.604;2023-04-15T04:07:23;65.30;;;51.45;;
76094;SDS011;64821;13.710;100.604;2023-04-15T04:08:27;66.25;;;53.15;;
76094;SDS011;64821;13.710;100.604;2023-04-15T04:09:31;72.43;;;54.83;;
76094;SDS011;64821;13.710;100.604;2023-04-15T04:10:35;63.05;;;51.40;;
76094;SDS011;64821;13.710;100.604;2023-04-15T04:11:38;63.60;;;53.23;;
76094;SDS011;64821;13.710;100.604;2023-04-15T04:12:42;70.47;;;55.05;;
76094;SDS011;64821;13.710;100.604;2023-04-15T04:13:46;68.38;;;54.85;;
76094;SDS011;64821;13.710;100.604;2023-04-15T04:14:49;66.65;;;53.78;;
76094;SDS011;64821;13.710;100.604;2023-04-15T04:15:53;65.22;;;52.58;;
76094;SDS011;64821;13.710;100.604;2023-04-15T04:16:57;64.80;;;52.43;;
76094;SDS011;64821;13.710;100.604;2023-04-15T04:18:02;65.70;;;52.42;;
76094;SDS011;64821;13.710;100.604;2023-04-15T04:19:06;66.03;;;51.53;;
76094;SDS011;64821;13.710;100.604;2023-04-15T04:20:10;64.32;;;53.25;;
76094;SDS011;64821;13.710;100.604;2023-04-15T04:21:14;68.03;;;54.38;;
76094;SDS011;64821;13.710;100.604;2023-04-15T04:22:20;64.60;;;52.43;;
76094;SDS011;64821;13.710;100.604;2023-04-15T04:23:24;68.55;;;53.95;;
76094;SDS011;64821;13.710;100.604;2023-04-15T04:24:28;65.20;;;51.83;;
76094;SDS011;64821;13.710;100.604;2023-04-15T04:25:32;66.40;;;54.13;;
76094;SDS011;64821;13.710;100.604;2023-04-15T04:26:36;67.50;;;53.03;;
76094;SDS011;64821;13.710;100.604;2023-04-15T04:27:40;64.87;;;53.70;;
76094;SDS011;64821;13.710;100.604;2023-04-15T04:28:43;70.40;;;55.65;;
76094;SDS011;64821;13.710;100.604;2023-04-15T04:29:47;66.47;;;52.53;;
76094;SDS011;64821;13.710;100.604;2023-04-15T04:30:51;66.57;;;52.20;;
76094;SDS011;64821;13.710;100.604;2023-04-15T04:31:54;67.10;;;52.17;;
76094;SDS011;64821;13.710;100.604;2023-04-15T04:32:58;65.57;;;50.80;;
76094;SDS011;64821;13.710;100.604;2023-04-15T04:34:04;65.82;;;54.17;;
76094;SDS011;64821;13.710;100.604;2023-04-15T04:35:08;66.45;;;53.30;;
76094;SDS011;64821;13.710;100.604;2023-04-15T04:36:14;61.10;;;49.25;;
76094;SDS011;64821;13.710;100.604;2023-04-15T04:37:18;65.40;;;51.13;;
76094;SDS011;64821;13.710;100.604;2023-04-15T04:38:22;68.37;;;53.93;;
76094;SDS011;64821;13.710;100.604;2023-04-15T04:39:26;68.53;;;53.03;;
76094;SDS011;64821;13.710;100.604;2023-04-15T04:40:30;70.63;;;54.92;;
76094;SDS011;64821;13.710;100.604;2023-04-15T04:41:33;62.75;;;51.70;;
76094;SDS011;64821;13.710;100.604;2023-04-15T04:42:37;68.53;;;52.13;;
76094;SDS011;64821;13.710;100.604;2023-04-15T04:43:41;62.37;;;49.13;;
76094;SDS011;64821;13.710;100.604;2023-04-15T04:44:44;63.28;;;51.65;;
76094;SDS011;64821;13.710;100.604;2023-04-15T04:45:49;60.08;;;49.20;;
76094;SDS011;64821;13.710;100.604;2023-04-15T04:46:53;65.75;;;55.53;;
76094;SDS011;64821;13.710;100.604;2023-04-15T04:47:56;68.40;;;55.15;;
76094;SDS011;64821;13.710;100.604;2023-04-15T04:49:00;66.60;;;51.83;;
76094;SDS011;64821;13.710;100.604;2023-04-15T04:50:06;68.03;;;52.50;;
76094;SDS011;64821;13.710;100.604;2023-04-15T04:51:11;62.88;;;50.42;;
76094;SDS011;64821;13.710;100.604;2023-04-15T04:52:15;66.50;;;52.90;;
76094;SDS011;64821;13.710;100.604;2023-04-15T04:53:18;63.30;;;51.67;;
76094;SDS011;64821;13.710;100.604;2023-04-15T04:54:22;65.17;;;52.90;;
76094;SDS011;64821;13.710;100.604;2023-04-15T04:55:26;65.88;;;55.20;;
76094;SDS011;64821;13.710;100.604;2023-04-15T04:56:30;68.35;;;53.95;;
76094;SDS011;64821;13.710;100.604;2023-04-15T04:57:33;65.75;;;53.65;;
76094;SDS011;64821;13.710;100.604;2023-04-15T04:58:37;64.22;;;51.80;;
76094;SDS011;64821;13.710;100.604;2023-04-15T04:59:41;60.83;;;49.33;;
76094;SDS011;64821;13.710;100.604;2023-04-15T05:00:44;59.67;;;50.08;;
76094;SDS011;64821;13.710;100.604;2023-04-15T05:01:48;58.65;;;48.75;;
76094;SDS011;64821;13.710;100.604;2023-04-15T05:02:52;65.45;;;51.10;;
76094;SDS011;64821;13.710;100.604;2023-04-15T05:03:56;63.72;;;49.70;;
76094;SDS011;64821;13.710;100.604;2023-04-15T05:05:00;61.50;;;50.30;;
76094;SDS011;64821;13.710;100.604;2023-04-15T05:06:05;61.38;;;48.47;;
76094;SDS011;64821;13.710;100.604;2023-04-15T05:07:09;59.40;;;49.40;;
76094;SDS011;64821;13.710;100.604;2023-04-15T05:08:12;63.58;;;49.75;;
76094;SDS011;64821;13.710;100.604;2023-04-15T05:09:16;63.70;;;51.78;;
76094;SDS011;64821;13.710;100.604;2023-04-15T05:10:20;63.70;;;50.97;;
76094;SDS011;64821;13.710;100.604;2023-04-15T05:11:24;65.35;;;52.38;;
76094;SDS011;64821;13.710;100.604;2023-04-15T05:12:27;67.68;;;56.25;;
76094;SDS011;64821;13.710;100.604;2023-04-15T05:13:31;65.30;;;53.17;;
76094;SDS011;64821;13.710;100.604;2023-04-15T05:14:35;72.95;;;54.15;;
76094;SDS011;64821;13.710;100.604;2023-04-15T05:15:39;64.73;;;53.60;;
76094;SDS011;64821;13.710;100.604;2023-04-15T05:16:42;60.88;;;50.22;;
76094;SDS011;64821;13.710;100.604;2023-04-15T05:17:46;62.85;;;51.78;;
76094;SDS011;64821;13.710;100.604;2023-04-15T05:18:50;63.80;;;50.95;;
76094;SDS011;64821;13.710;100.604;2023-04-15T05:19:54;68.80;;;52.72;;
76094;SDS011;64821;13.710;100.604;2023-04-15T05:20:57;66.83;;;51.30;;
76094;SDS011;64821;13.710;100.604;2023-04-15T05:22:03;63.35;;;52.85;;
76094;SDS011;64821;13.710;100.604;2023-04-15T05:23:07;61.60;;;49.65;;
76094;SDS011;64821;13.710;100.604;2023-04-15T05:24:10;62.38;;;53.78;;
76094;SDS011;64821;13.710;100.604;2023-04-15T05:25:14;66.57;;;52.67;;
76094;SDS011;64821;13.710;100.604;2023-04-15T05:26:18;64.33;;;53.77;;
76094;SDS011;64821;13.710;100.604;2023-04-15T05:27:21;62.00;;;51.08;;
76094;SDS011;64821;13.710;100.604;2023-04-15T05:28:25;62.30;;;53.53;;
76094;SDS011;64821;13.710;100.604;2023-04-15T05:29:29;69.97;;;53.22;;
76094;SDS011;64821;13.710;100.604;2023-04-15T05:30:33;65.07;;;52.95;;
76094;SDS011;64821;13.710;100.604;2023-04-15T05:31:36;61.60;;;50.37;;
76094;SDS011;64821;13.710;100.604;2023-04-15T05:32:40;63.33;;;51.10;;
76094;SDS011;64821;13.710;100.604;2023-04-15T05:33:44;61.58;;;50.25;;
76094;SDS011;64821;13.710;100.604;2023-04-15T05:34:48;62.38;;;51.78;;
76094;SDS011;64821;13.710;100.604;2023-04-15T05:35:51;61.92;;;52.17;;
76094;SDS011;64821;13.710;100.604;2023-04-15T05:36:55;62.53;;;50.37;;
76094;SDS011;64821;13.710;100.604;2023-04-15T05:38:00;65.47;;;50.53;;
76094;SDS011;64821;13.710;100.604;2023-04-15T05:39:04;60.95;;;49.25;;
76094;SDS011;64821;13.710;100.604;2023-04-15T05:40:08;59.30;;;47.83;;
76094;SDS011;64821;13.710;100.604;2023-04-15T05:41:12;60.92;;;49.85;;
76094;SDS011;64821;13.710;100.604;2023-04-15T05:42:19;57.47;;;49.07;;
76094;SDS011;64821;13.710;100.604;2023-04-15T05:43:23;58.20;;;48.65;;
76094;SDS011;64821;13.710;100.604;2023-04-15T05:44:26;63.47;;;50.63;;
76094;SDS011;64821;13.710;100.604;2023-04-15T05:45:30;61.00;;;49.88;;
76094;SDS011;64821;13.710;100.604;2023-04-15T05:46:36;61.58;;;51.08;;
76094;SDS011;64821;13.710;100.604;2023-04-15T05:47:40;58.93;;;48.50;;
76094;SDS011;64821;13.710;100.604;2023-04-15T05:48:44;57.90;;;48.03;;
76094;SDS011;64821;13.710;100.604;2023-04-15T05:49:57;64.10;;;50.83;;
76094;SDS011;64821;13.710;100.604;2023-04-15T05:51:00;60.13;;;49.33;;
76094;SDS011;64821;13.710;100.604;2023-04-15T05:52:04;57.60;;;47.63;;
76094;SDS011;64821;13.710;100.604;2023-04-15T05:53:11;58.93;;;48.40;;
76094;SDS011;64821;13.710;100.604;2023-04-15T05:54:15;64.03;;;52.28;;
76094;SDS011;64821;13.710;100.604;2023-04-15T05:55:21;66.32;;;54.00;;
76094;SDS011;64821;13.710;100.604;2023-04-15T05:56:24;62.30;;;53.00;;
76094;SDS011;64821;13.710;100.604;2023-04-15T05:57:28;63.78;;;51.67;;
76094;SDS011;64821;13.710;100.604;2023-04-15T05:58:32;62.13;;;51.87;;
76094;SDS011;64821;13.710;100.604;2023-04-15T05:59:36;63.08;;;50.88;;
76094;SDS011;64821;13.710;100.604;2023-04-15T06:00:40;60.92;;;50.72;;
76094;SDS011;64821;13.710;100.604;2023-04-15T06:01:43;61.50;;;49.25;;
76094;SDS011;64821;13.710;100.604;2023-04-15T06:02:47;55.72;;;47.85;;
76094;SDS011;64821;13.710;100.604;2023-04-15T06:03:51;62.87;;;51.20;;
76094;SDS011;64821;13.710;100.604;2023-04-15T06:04:57;58.30;;;49.17;;